createdAt,value
2017-12-13T00:00:35.364Z,100071
2017-12-13T00:01:35.359Z,100063
2017-12-13T00:02:35.553Z,100074
2017-12-13T00:03:35.481Z,100074
2017-12-13T00:04:35.576Z,100073
2017-12-13T00:05:36.597Z,100064
2017-12-13T00:06:35.779Z,100067
2017-12-13T00:07:35.693Z,100070
2017-12-13T00:08:35.876Z,100069
2017-12-13T00:09:35.955Z,100072
2017-12-13T00:10:35.931Z,100070
2017-12-13T00:11:36.904Z,100072
2017-12-13T00:12:36.022Z,100065
2017-12-13T00:13:37.046Z,100075
2017-12-13T00:14:36.231Z,100073
2017-12-13T00:15:37.281Z,100072
2017-12-13T00:16:36.372Z,100066
2017-12-13T00:17:36.312Z,100066
2017-12-13T00:18:36.479Z,100066
2017-12-13T00:19:37.513Z,100055
2017-12-13T00:20:37.416Z,100056
2017-12-13T00:21:36.491Z,100057
2017-12-13T00:22:37.457Z,100050
2017-12-13T00:23:36.643Z,100063
2017-12-13T00:24:36.575Z,100050
2017-12-13T00:25:37.570Z,100042
2017-12-13T00:26:36.681Z,100049
2017-12-13T00:27:37.759Z,100049
2017-12-13T00:28:37.650Z,100049
2017-12-13T00:29:36.754Z,100054
2017-12-13T00:30:37.930Z,100048
2017-12-13T00:31:37.828Z,100047
2017-12-13T00:32:37.912Z,100051
2017-12-13T00:33:37.007Z,100045
2017-12-13T00:34:37.137Z,100045
2017-12-13T00:35:38.037Z,100038
2017-12-13T00:36:38.226Z,100040
2017-12-13T00:37:37.217Z,100041
2017-12-13T00:38:38.376Z,100035
2017-12-13T00:39:38.417Z,100040
2017-12-13T00:40:38.330Z,100038
2017-12-13T00:41:38.549Z,100037
2017-12-13T00:42:37.531Z,100032
2017-12-13T00:43:38.457Z,100034
2017-12-13T00:44:37.635Z,100034
2017-12-13T00:45:38.664Z,100032
2017-12-13T00:46:38.578Z,100028
2017-12-13T00:47:37.687Z,100028
2017-12-13T00:48:38.739Z,100034
2017-12-13T00:49:38.911Z,100033
2017-12-13T00:50:38.828Z,100035
2017-12-13T00:51:38.040Z,100036
2017-12-13T00:52:38.966Z,100028
2017-12-13T00:53:39.043Z,100028
2017-12-13T00:54:38.132Z,100020
2017-12-13T00:55:38.292Z,100029
2017-12-13T00:56:38.322Z,100026
2017-12-13T00:57:38.350Z,100024
2017-12-13T00:58:38.294Z,100013
2017-12-13T00:59:39.352Z,100022
2017-12-13T01:00:38.437Z,100021
2017-12-13T01:01:39.571Z,100019
2017-12-13T01:02:39.481Z,100013
2017-12-13T01:03:39.639Z,100022
2017-12-13T01:04:39.713Z,100016
2017-12-13T01:05:39.646Z,100020
2017-12-13T01:06:39.624Z,100009
2017-12-13T01:07:38.764Z,100019
2017-12-13T01:08:39.717Z,100012
2017-12-13T01:09:38.796Z,100003
2017-12-13T01:10:38.965Z,100010
2017-12-13T01:11:39.037Z,100006
2017-12-13T01:12:39.089Z,99996
2017-12-13T01:13:39.109Z,100004
2017-12-13T01:14:40.174Z,100003
2017-12-13T01:15:40.088Z,100001
2017-12-13T01:16:39.294Z,100004
2017-12-13T01:17:40.610Z,100004
2017-12-13T01:18:39.372Z,100004
2017-12-13T01:19:41.069Z,99997
2017-12-13T01:20:40.071Z,100001
2017-12-13T01:21:39.430Z,99999
2017-12-13T01:22:39.379Z,99996
2017-12-13T01:23:40.310Z,100001
2017-12-13T01:24:40.383Z,99999
2017-12-13T01:25:39.585Z,100000
2017-12-13T01:26:39.506Z,99997
2017-12-13T01:27:40.522Z,99998
2017-12-13T01:28:40.679Z,100001
2017-12-13T01:29:40.585Z,100001
2017-12-13T01:30:40.762Z,100002
2017-12-13T01:31:40.850Z,99999
2017-12-13T01:32:39.806Z,100000
2017-12-13T01:33:40.812Z,99998
2017-12-13T01:34:39.998Z,99998
2017-12-13T01:35:39.907Z,99993
2017-12-13T01:36:41.074Z,100001
2017-12-13T01:37:40.070Z,100000
2017-12-13T01:38:40.225Z,99996
2017-12-13T01:39:40.172Z,99990
2017-12-13T01:40:40.186Z,100000
2017-12-13T01:41:41.365Z,99998
2017-12-13T01:42:41.317Z,99998
2017-12-13T01:43:41.482Z,99995
2017-12-13T01:44:40.647Z,99988
2017-12-13T01:45:40.820Z,99994
2017-12-13T01:46:40.635Z,99995
2017-12-13T01:47:40.745Z,99991
2017-12-13T01:48:41.627Z,99994
2017-12-13T01:49:40.805Z,99992
2017-12-13T01:50:41.730Z,99982
2017-12-13T01:51:41.945Z,99988
2017-12-13T01:52:42.038Z,99989
2017-12-13T01:53:41.061Z,99989
2017-12-13T01:54:41.028Z,99987
2017-12-13T01:55:42.176Z,99989
2017-12-13T01:56:41.125Z,99988
2017-12-13T01:57:41.182Z,99976
2017-12-13T01:58:41.221Z,99987
2017-12-13T01:59:42.249Z,99979
2017-12-13T02:00:41.380Z,99979
2017-12-13T02:01:41.476Z,99977
2017-12-13T02:02:42.567Z,99971
2017-12-13T02:03:42.491Z,99968
2017-12-13T02:04:41.496Z,99958
2017-12-13T02:05:42.501Z,99965
2017-12-13T02:06:42.679Z,99966
2017-12-13T02:07:42.719Z,99957
2017-12-13T02:08:42.680Z,99959
2017-12-13T02:09:42.842Z,99953
2017-12-13T02:10:42.749Z,99956
2017-12-13T02:11:41.928Z,99951
2017-12-13T02:12:41.903Z,99941
2017-12-13T02:13:41.938Z,99949
2017-12-13T02:14:41.957Z,99937
2017-12-13T02:15:41.948Z,99946
2017-12-13T02:16:42.006Z,99937
2017-12-13T02:17:43.164Z,99934
2017-12-13T02:18:43.188Z,99923
2017-12-13T02:19:42.308Z,99923
2017-12-13T02:20:42.395Z,99919
2017-12-13T02:21:43.436Z,99909
2017-12-13T02:22:42.672Z,99911
2017-12-13T02:23:42.502Z,99904
2017-12-13T02:24:43.400Z,99911
2017-12-13T02:25:43.453Z,99911
2017-12-13T02:26:42.731Z,99916
2017-12-13T02:27:43.579Z,99911
2017-12-13T02:28:43.802Z,99913
2017-12-13T02:29:43.877Z,99915
2017-12-13T02:30:42.827Z,99908
2017-12-13T02:31:43.011Z,99912
2017-12-13T02:32:44.017Z,99911
2017-12-13T02:33:43.022Z,99897
2017-12-13T02:34:43.075Z,99903
2017-12-13T02:35:43.022Z,99898
2017-12-13T02:36:43.183Z,99899
2017-12-13T02:37:44.226Z,99902
2017-12-13T02:38:43.148Z,99898
2017-12-13T02:39:43.345Z,99893
2017-12-13T02:40:43.264Z,99897
2017-12-13T02:41:43.279Z,99897
2017-12-13T02:42:44.253Z,99897
2017-12-13T02:43:44.319Z,99896
2017-12-13T02:44:43.473Z,99892
2017-12-13T02:45:44.398Z,99891
2017-12-13T02:46:44.467Z,99898
2017-12-13T02:47:43.645Z,99886
2017-12-13T02:48:44.521Z,99887
2017-12-13T02:49:44.713Z,99887
2017-12-13T02:50:44.754Z,99883
2017-12-13T02:51:43.729Z,99885
2017-12-13T02:52:44.776Z,99877
2017-12-13T02:53:43.982Z,99879
2017-12-13T02:54:44.896Z,99880
2017-12-13T02:55:44.097Z,99878
2017-12-13T02:56:44.103Z,99881
2017-12-13T02:57:45.007Z,99872
2017-12-13T02:58:44.174Z,99869
2017-12-13T02:59:45.071Z,99866
2017-12-13T03:00:44.160Z,99863
2017-12-13T03:01:45.256Z,99865
2017-12-13T03:02:45.331Z,99866
2017-12-13T03:03:44.330Z,99864
2017-12-13T03:04:44.424Z,99867
2017-12-13T03:05:45.591Z,99864
2017-12-13T03:06:45.653Z,99860
2017-12-13T03:07:45.741Z,99854
2017-12-13T03:08:45.621Z,99855
2017-12-13T03:09:45.787Z,99861
2017-12-13T03:10:44.871Z,99855
2017-12-13T03:11:44.830Z,99857
2017-12-13T03:12:45.996Z,99844
2017-12-13T03:13:44.952Z,99855
2017-12-13T03:14:46.114Z,99857
2017-12-13T03:15:46.017Z,99853
2017-12-13T03:16:45.092Z,99850
2017-12-13T03:17:45.277Z,99847
2017-12-13T03:18:45.212Z,99844
2017-12-13T03:19:45.279Z,99848
2017-12-13T03:20:45.328Z,99848
2017-12-13T03:21:45.391Z,99845
2017-12-13T03:22:46.560Z,99842
2017-12-13T03:23:46.489Z,99842
2017-12-13T03:24:45.677Z,99840
2017-12-13T03:25:45.729Z,99836
2017-12-13T03:26:45.755Z,99832
2017-12-13T03:27:46.672Z,99833
2017-12-13T03:28:46.804Z,99834
2017-12-13T03:29:45.851Z,99823
2017-12-13T03:30:45.935Z,99830
2017-12-13T03:31:46.014Z,99826
2017-12-13T03:32:45.967Z,99827
2017-12-13T03:33:47.146Z,99819
2017-12-13T03:34:46.212Z,99817
2017-12-13T03:35:46.211Z,99818
2017-12-13T03:36:46.246Z,99819
2017-12-13T03:37:47.166Z,99815
2017-12-13T03:38:46.336Z,99825
2017-12-13T03:39:46.330Z,99829
2017-12-13T03:40:47.371Z,99821
2017-12-13T03:41:46.464Z,99817
2017-12-13T03:42:47.617Z,99817
2017-12-13T03:43:47.641Z,99813
2017-12-13T03:44:47.598Z,99810
2017-12-13T03:45:46.810Z,99809
2017-12-13T03:46:47.866Z,99810
2017-12-13T03:47:46.850Z,99807
2017-12-13T03:48:46.963Z,99808
2017-12-13T03:49:46.947Z,99808
2017-12-13T03:50:48.081Z,99801
2017-12-13T03:51:48.161Z,99810
2017-12-13T03:52:48.205Z,99805
2017-12-13T03:53:48.307Z,99802
2017-12-13T03:54:47.302Z,99805
2017-12-13T03:55:48.275Z,99796
2017-12-13T03:56:47.486Z,99790
2017-12-13T03:57:47.462Z,99783
2017-12-13T03:58:47.565Z,99784
2017-12-13T03:59:47.616Z,99775
2017-12-13T04:00:48.546Z,99781
2017-12-13T04:01:47.665Z,99784
2017-12-13T04:02:48.706Z,99785
2017-12-13T04:03:48.097Z,99788
2017-12-13T04:04:48.945Z,99789
2017-12-13T04:05:49.021Z,99790
2017-12-13T04:06:49.100Z,99782
2017-12-13T04:07:48.117Z,99783
2017-12-13T04:08:48.060Z,99780
2017-12-13T04:09:48.087Z,99779
2017-12-13T04:10:48.239Z,99775
2017-12-13T04:11:48.276Z,99773
2017-12-13T04:12:48.218Z,99771
2017-12-13T04:13:48.338Z,99763
2017-12-13T04:14:49.406Z,99771
2017-12-13T04:15:49.313Z,99767
2017-12-13T04:16:48.405Z,99758
2017-12-13T04:17:48.545Z,99766
2017-12-13T04:18:48.421Z,99760
2017-12-13T04:19:49.526Z,99755
2017-12-13T04:20:49.568Z,99755
2017-12-13T04:21:49.664Z,99750
2017-12-13T04:22:48.559Z,99746
2017-12-13T04:23:49.688Z,99749
2017-12-13T04:24:48.645Z,99747
2017-12-13T04:25:48.762Z,99747
2017-12-13T04:26:48.725Z,99745
2017-12-13T04:27:49.719Z,99736
2017-12-13T04:28:48.898Z,99734
2017-12-13T04:29:48.894Z,99735
2017-12-13T04:30:49.944Z,99729
2017-12-13T04:31:49.148Z,99730
2017-12-13T04:32:49.207Z,99721
2017-12-13T04:33:49.123Z,99718
2017-12-13T04:34:49.247Z,99716
2017-12-13T04:35:50.248Z,99719
2017-12-13T04:36:50.289Z,99720
2017-12-13T04:37:49.327Z,99719
2017-12-13T04:38:49.304Z,99720
2017-12-13T04:39:50.330Z,99718
2017-12-13T04:40:50.504Z,99714
2017-12-13T04:41:49.537Z,99715
2017-12-13T04:42:50.622Z,99719
2017-12-13T04:43:50.587Z,99704
2017-12-13T04:44:49.800Z,99708
2017-12-13T04:45:49.891Z,99705
2017-12-13T04:46:50.805Z,99703
2017-12-13T04:47:50.004Z,99702
2017-12-13T04:48:50.895Z,99706
2017-12-13T04:49:51.061Z,99698
2017-12-13T04:50:50.101Z,99696
2017-12-13T04:51:50.177Z,99688
2017-12-13T04:52:51.200Z,99697
2017-12-13T04:53:50.213Z,99696
2017-12-13T04:54:50.363Z,99690
2017-12-13T04:55:50.392Z,99692
2017-12-13T04:56:50.311Z,99686
2017-12-13T04:57:51.348Z,99692
2017-12-13T04:58:50.545Z,99684
2017-12-13T04:59:51.573Z,99686
2017-12-13T05:00:50.532Z,99688
2017-12-13T05:01:50.613Z,99675
2017-12-13T05:02:51.530Z,99685
2017-12-13T05:03:50.607Z,99681
2017-12-13T05:04:51.762Z,99690
2017-12-13T05:05:50.798Z,99676
2017-12-13T05:06:51.860Z,99674
2017-12-13T05:07:51.777Z,99674
2017-12-13T05:08:51.824Z,99672
2017-12-13T05:09:51.907Z,99671
2017-12-13T05:10:50.993Z,99674
2017-12-13T05:11:52.115Z,99661
2017-12-13T05:12:52.026Z,99664
2017-12-13T05:13:52.074Z,99663
2017-12-13T05:14:51.200Z,99652
2017-12-13T05:15:51.195Z,99658
2017-12-13T05:16:52.170Z,99655
2017-12-13T05:17:51.376Z,99658
2017-12-13T05:18:51.286Z,99659
2017-12-13T05:19:51.524Z,99656
2017-12-13T05:20:51.453Z,99648
2017-12-13T05:21:52.486Z,99654
2017-12-13T05:22:52.523Z,99641
2017-12-13T05:23:52.554Z,99633
2017-12-13T05:24:52.738Z,99632
2017-12-13T05:25:52.690Z,99635
2017-12-13T05:26:51.736Z,99633
2017-12-13T05:27:51.854Z,99629
2017-12-13T05:28:52.757Z,99633
2017-12-13T05:29:51.982Z,99627
2017-12-13T05:30:51.980Z,99624
2017-12-13T05:31:53.019Z,99626
2017-12-13T05:32:52.934Z,99631
2017-12-13T05:33:52.047Z,99620
2017-12-13T05:34:52.119Z,99614
2017-12-13T05:35:53.205Z,99628
2017-12-13T05:36:53.149Z,99625
2017-12-13T05:37:52.353Z,99627
2017-12-13T05:38:53.325Z,99626
2017-12-13T05:39:53.382Z,99619
2017-12-13T05:40:52.334Z,99623
2017-12-13T05:41:52.604Z,99622
2017-12-13T05:42:54.715Z,99612
2017-12-13T05:43:53.218Z,99607
2017-12-13T05:44:53.667Z,99612
2017-12-13T05:45:53.417Z,99618
2017-12-13T05:46:53.603Z,99611
2017-12-13T05:47:53.786Z,99606
2017-12-13T05:48:52.799Z,99608
2017-12-13T05:49:52.643Z,99628
2017-12-13T05:50:53.623Z,99608
2017-12-13T05:51:53.721Z,99607
2017-12-13T05:52:54.718Z,99605
2017-12-13T05:53:52.958Z,99602
2017-12-13T05:54:54.034Z,99604
2017-12-13T05:55:54.105Z,99603
2017-12-13T05:56:54.016Z,99590
2017-12-13T05:57:53.267Z,99587
2017-12-13T05:58:53.319Z,99601
2017-12-13T05:59:53.302Z,99595
2017-12-13T06:00:54.396Z,99596
2017-12-13T06:01:54.350Z,99589
2017-12-13T06:02:54.546Z,99588
2017-12-13T06:03:54.586Z,99573
2017-12-13T06:04:53.621Z,99583
2017-12-13T06:05:54.590Z,99576
2017-12-13T06:06:54.674Z,99568
2017-12-13T06:07:54.588Z,99577
2017-12-13T06:08:54.791Z,99564
2017-12-13T06:09:54.688Z,99567
2017-12-13T06:10:53.771Z,99570
2017-12-13T06:11:53.863Z,99553
2017-12-13T06:12:54.952Z,99560
2017-12-13T06:13:55.815Z,99560
2017-12-13T06:14:54.958Z,99553
2017-12-13T06:15:54.180Z,99557
2017-12-13T06:16:54.190Z,99558
2017-12-13T06:17:55.140Z,99559
2017-12-13T06:18:54.292Z,99546
2017-12-13T06:19:55.584Z,99547
2017-12-13T06:20:54.786Z,99543
2017-12-13T06:21:55.893Z,99539
2017-12-13T06:22:55.439Z,99538
2017-12-13T06:23:54.526Z,99528
2017-12-13T06:24:54.548Z,99536
2017-12-13T06:25:54.631Z,99540
2017-12-13T06:26:55.749Z,99538
2017-12-13T06:27:55.683Z,99534
2017-12-13T06:28:56.613Z,99533
2017-12-13T06:29:55.703Z,99525
2017-12-13T06:30:55.989Z,99510
2017-12-13T06:31:56.126Z,99532
2017-12-13T06:32:56.024Z,99523
2017-12-13T06:33:55.202Z,99515
2017-12-13T06:34:55.102Z,99514
2017-12-13T06:35:55.247Z,99527
2017-12-13T06:36:55.269Z,99521
2017-12-13T06:37:55.212Z,99526
2017-12-13T06:38:56.181Z,99513
2017-12-13T06:39:56.255Z,99524
2017-12-13T06:40:56.278Z,99508
2017-12-13T06:41:56.437Z,99509
2017-12-13T06:42:56.361Z,99515
2017-12-13T06:43:56.410Z,99515
2017-12-13T06:44:55.638Z,99503
2017-12-13T06:45:56.496Z,99509
2017-12-13T06:46:56.687Z,99501
2017-12-13T06:47:55.881Z,99506
2017-12-13T06:48:55.907Z,99500
2017-12-13T06:49:55.889Z,99505
2017-12-13T06:50:56.966Z,99493
2017-12-13T06:51:56.045Z,99484
2017-12-13T06:52:56.126Z,99499
2017-12-13T06:53:56.097Z,99479
2017-12-13T06:54:56.272Z,99485
2017-12-13T06:55:56.254Z,99480
2017-12-13T06:56:57.268Z,99470
2017-12-13T06:57:57.415Z,99471
2017-12-13T06:58:56.476Z,99459
2017-12-13T06:59:56.389Z,99460
2017-12-13T07:00:56.575Z,99449
2017-12-13T07:01:57.645Z,99454
2017-12-13T07:02:56.855Z,99459
2017-12-13T07:03:57.615Z,99466
2017-12-13T07:04:57.644Z,99456
2017-12-13T07:05:58.098Z,99447
2017-12-13T07:06:56.849Z,99451
2017-12-13T07:07:58.462Z,99444
2017-12-13T07:08:58.638Z,99450
2017-12-13T07:09:57.885Z,99462
2017-12-13T07:10:57.016Z,99448
2017-12-13T07:11:58.037Z,99448
2017-12-13T07:12:58.162Z,99426
2017-12-13T07:13:57.295Z,99449
2017-12-13T07:14:57.464Z,99456
2017-12-13T07:15:58.290Z,99440
2017-12-13T07:16:58.292Z,99458
2017-12-13T07:17:58.271Z,99449
2017-12-13T07:18:57.351Z,99450
2017-12-13T07:19:57.457Z,99435
2017-12-13T07:20:57.452Z,99431
2017-12-13T07:21:57.442Z,99431
2017-12-13T07:22:57.489Z,99427
2017-12-13T07:23:57.520Z,99452
2017-12-13T07:24:58.555Z,99429
2017-12-13T07:25:58.474Z,99428
2017-12-13T07:26:57.632Z,99449
2017-12-13T07:27:58.674Z,99428
2017-12-13T07:28:57.796Z,99424
2017-12-13T07:29:58.773Z,99424
2017-12-13T07:30:57.811Z,99428
2017-12-13T07:31:57.754Z,99413
2017-12-13T07:32:58.810Z,99421
2017-12-13T07:33:58.940Z,99411
2017-12-13T07:34:58.014Z,99416
2017-12-13T07:35:59.109Z,99413
2017-12-13T07:36:58.082Z,99431
2017-12-13T07:37:59.240Z,99413
2017-12-13T07:38:58.074Z,99406
2017-12-13T07:39:59.706Z,99409
2017-12-13T07:40:59.482Z,99406
2017-12-13T07:41:58.294Z,99403
2017-12-13T07:42:59.468Z,99420
2017-12-13T07:43:59.472Z,99407
2017-12-13T07:44:58.520Z,99415
2017-12-13T07:45:58.454Z,99416
2017-12-13T07:46:59.609Z,99420
2017-12-13T07:47:58.572Z,99393
2017-12-13T07:48:58.681Z,99380
2017-12-13T07:49:58.643Z,99400
2017-12-13T07:50:59.896Z,99392
2017-12-13T07:52:00.669Z,99385
2017-12-13T07:52:59.922Z,99392
2017-12-13T07:53:58.867Z,99381
2017-12-13T07:54:59.842Z,99386
2017-12-13T07:55:59.887Z,99381
2017-12-13T07:56:58.958Z,99381
2017-12-13T07:58:00.139Z,99364
2017-12-13T07:58:59.064Z,99368
2017-12-13T07:59:59.084Z,99369
2017-12-13T08:00:59.160Z,99354
2017-12-13T08:02:00.247Z,99345
2017-12-13T08:02:59.159Z,99356
2017-12-13T08:03:59.544Z,99364
2017-12-13T08:05:00.376Z,99356
2017-12-13T08:06:00.428Z,99349
2017-12-13T08:07:00.324Z,99353
2017-12-13T08:07:59.605Z,99351
2017-12-13T08:08:59.560Z,99350
2017-12-13T08:10:00.506Z,99345
2017-12-13T08:11:00.588Z,99338
2017-12-13T08:12:00.520Z,99340
2017-12-13T08:13:00.801Z,99328
2017-12-13T08:13:59.764Z,99337
2017-12-13T08:15:00.669Z,99341
2017-12-13T08:15:59.848Z,99333
2017-12-13T08:16:59.902Z,99325
2017-12-13T08:17:59.828Z,99329
2017-12-13T08:18:59.940Z,99329
2017-12-13T08:20:01.050Z,99329
2017-12-13T08:21:00.948Z,99316
2017-12-13T08:22:00.112Z,99323
2017-12-13T08:23:01.029Z,99317
2017-12-13T08:24:01.211Z,99313
2017-12-13T08:25:01.252Z,99290
2017-12-13T08:26:01.143Z,99315
2017-12-13T08:27:00.294Z,99299
2017-12-13T08:28:01.352Z,99321
2017-12-13T08:29:01.088Z,99288
2017-12-13T08:30:01.150Z,99286
2017-12-13T08:31:00.627Z,99282
2017-12-13T08:32:01.519Z,99282
2017-12-13T08:33:01.584Z,99263
2017-12-13T08:34:01.548Z,99267
2017-12-13T08:35:01.279Z,99267
2017-12-13T08:36:01.123Z,99256
2017-12-13T08:37:03.172Z,99262
2017-12-13T08:38:01.974Z,99240
2017-12-13T08:39:02.167Z,99256
2017-12-13T08:40:02.530Z,99246
2017-12-13T08:41:01.172Z,99238
2017-12-13T08:42:02.744Z,99238
2017-12-13T08:43:01.478Z,99237
2017-12-13T08:44:01.407Z,99230
2017-12-13T08:45:03.030Z,99235
2017-12-13T08:46:02.285Z,99226
2017-12-13T08:47:01.444Z,99230
2017-12-13T08:48:02.412Z,99227
2017-12-13T08:49:02.775Z,99228
2017-12-13T08:50:01.566Z,99220
2017-12-13T08:51:02.595Z,99213
2017-12-13T08:52:02.561Z,99231
2017-12-13T08:53:01.726Z,99219
2017-12-13T08:54:02.760Z,99214
2017-12-13T08:55:01.794Z,99219
2017-12-13T08:56:01.833Z,99215
2017-12-13T08:57:02.801Z,99233
2017-12-13T08:58:02.986Z,99227
2017-12-13T08:59:02.928Z,99219
2017-12-13T09:00:02.945Z,99224
2017-12-13T09:01:03.028Z,99229
2017-12-13T09:02:02.126Z,99224
2017-12-13T09:03:02.117Z,99225
2017-12-13T09:04:02.191Z,99237
2017-12-13T09:05:04.485Z,99220
2017-12-13T09:06:03.344Z,99223
2017-12-13T09:07:03.360Z,99225
2017-12-13T09:08:02.341Z,99213
2017-12-13T09:09:02.717Z,99207
2017-12-13T09:10:02.526Z,99218
2017-12-13T09:11:03.459Z,99210
2017-12-13T09:12:02.726Z,99216
2017-12-13T09:13:03.737Z,99204
2017-12-13T09:14:03.658Z,99197
2017-12-13T09:15:03.871Z,99207
2017-12-13T09:16:02.901Z,99231
2017-12-13T09:17:04.044Z,99200
2017-12-13T09:18:04.037Z,99204
2017-12-13T09:19:03.191Z,99195
2017-12-13T09:20:03.086Z,99191
2017-12-13T09:21:03.229Z,99199
2017-12-13T09:22:04.504Z,99191
2017-12-13T09:23:03.324Z,99186
2017-12-13T09:24:04.349Z,99186
2017-12-13T09:25:04.736Z,99187
2017-12-13T09:26:03.832Z,99166
2017-12-13T09:27:03.403Z,99176
2017-12-13T09:28:04.603Z,99170
2017-12-13T09:29:04.499Z,99161
2017-12-13T09:30:04.677Z,99157
2017-12-13T09:31:04.688Z,99159
2017-12-13T09:32:03.660Z,99155
2017-12-13T09:33:04.395Z,99151
2017-12-13T09:34:04.883Z,99142
2017-12-13T09:35:04.858Z,99151
2017-12-13T09:36:04.868Z,99149
2017-12-13T09:37:04.000Z,99147
2017-12-13T09:38:05.663Z,99146
2017-12-13T09:39:04.194Z,99144
2017-12-13T09:40:04.077Z,99143
2017-12-13T09:41:06.412Z,99145
2017-12-13T09:42:06.540Z,99141
2017-12-13T09:43:04.777Z,99118
2017-12-13T09:44:05.278Z,99111
2017-12-13T09:45:05.362Z,99112
2017-12-13T09:46:05.315Z,99119
2017-12-13T09:47:04.514Z,99120
2017-12-13T09:48:04.416Z,99112
2017-12-13T09:49:05.444Z,99116
2017-12-13T09:50:05.340Z,99110
2017-12-13T09:51:05.384Z,99117
2017-12-13T09:52:06.406Z,99111
2017-12-13T09:53:04.558Z,99097
2017-12-13T09:54:05.652Z,99089
2017-12-13T09:55:05.641Z,99101
2017-12-13T09:56:04.667Z,99092
2017-12-13T09:57:04.791Z,99082
2017-12-13T09:58:05.653Z,99134
2017-12-13T09:59:05.836Z,99107
2017-12-13T10:00:05.946Z,99092
2017-12-13T10:01:05.995Z,99097
2017-12-13T10:02:05.069Z,99108
2017-12-13T10:03:04.980Z,99063
2017-12-13T10:04:05.155Z,99090
2017-12-13T10:05:06.180Z,99100
2017-12-13T10:06:08.022Z,99094
2017-12-13T10:07:07.265Z,99137
2017-12-13T10:08:05.325Z,99095
2017-12-13T10:09:05.472Z,99108
2017-12-13T10:10:05.489Z,99086
2017-12-13T10:11:07.181Z,99079
2017-12-13T10:12:05.580Z,99090
2017-12-13T10:13:06.660Z,99103
2017-12-13T10:14:05.717Z,99081
2017-12-13T10:15:07.130Z,99086
2017-12-13T10:16:06.614Z,99086
2017-12-13T10:17:06.702Z,99075
2017-12-13T10:18:05.856Z,99074
2017-12-13T10:19:06.819Z,99060
2017-12-13T10:20:05.967Z,99083
2017-12-13T10:21:06.903Z,99053
2017-12-13T10:22:06.315Z,99049
2017-12-13T10:23:07.093Z,99076
2017-12-13T10:24:06.080Z,99064
2017-12-13T10:25:06.391Z,99042
2017-12-13T10:26:07.125Z,99068
2017-12-13T10:27:07.213Z,99037
2017-12-13T10:28:07.287Z,99047
2017-12-13T10:29:06.405Z,99046
2017-12-13T10:30:07.358Z,99013
2017-12-13T10:31:07.455Z,99003
2017-12-13T10:32:07.646Z,99011
2017-12-13T10:33:07.005Z,98991
2017-12-13T10:34:06.708Z,98990
2017-12-13T10:35:07.008Z,98985
2017-12-13T10:36:06.856Z,99008
2017-12-13T10:37:07.762Z,98986
2017-12-13T10:38:07.934Z,98977
2017-12-13T10:39:06.910Z,98985
2017-12-13T10:40:08.180Z,98970
2017-12-13T10:41:08.065Z,98997
2017-12-13T10:42:08.103Z,98959
2017-12-13T10:43:08.179Z,98959
2017-12-13T10:44:08.272Z,98967
2017-12-13T10:45:08.363Z,98964
2017-12-13T10:46:07.513Z,98965
2017-12-13T10:47:08.373Z,98948
2017-12-13T10:48:08.584Z,98951
2017-12-13T10:49:07.445Z,98935
2017-12-13T10:50:08.600Z,98936
2017-12-13T10:51:08.734Z,98973
2017-12-13T10:52:07.622Z,98931
2017-12-13T10:53:08.734Z,98934
2017-12-13T10:54:08.805Z,98926
2017-12-13T10:55:09.301Z,98921
2017-12-13T10:56:07.910Z,98928
2017-12-13T10:57:09.318Z,98910
2017-12-13T10:58:08.420Z,98925
2017-12-13T10:59:08.976Z,98918
2017-12-13T11:00:09.147Z,98918
2017-12-13T11:01:08.238Z,98913
2017-12-13T11:02:09.097Z,98913
2017-12-13T11:03:09.491Z,98898
2017-12-13T11:04:08.354Z,98918
2017-12-13T11:05:09.380Z,98964
2017-12-13T11:06:08.647Z,98883
2017-12-13T11:07:09.523Z,98894
2017-12-13T11:08:08.652Z,98891
2017-12-13T11:09:09.520Z,98882
2017-12-13T11:10:09.642Z,98894
2017-12-13T11:11:09.663Z,98875
2017-12-13T11:12:09.624Z,98880
2017-12-13T11:13:08.726Z,98874
2017-12-13T11:14:08.838Z,98875
2017-12-13T11:15:08.809Z,98861
2017-12-13T11:16:10.677Z,98868
2017-12-13T11:17:09.803Z,98849
2017-12-13T11:18:08.948Z,98847
2017-12-13T11:19:09.909Z,98844
2017-12-13T11:20:08.947Z,98833
2017-12-13T11:21:10.140Z,98841
2017-12-13T11:22:09.048Z,98832
2017-12-13T11:23:10.042Z,98839
2017-12-13T11:24:09.984Z,98835
2017-12-13T11:25:10.297Z,98828
2017-12-13T11:26:10.408Z,98831
2017-12-13T11:27:10.242Z,98817
2017-12-13T11:28:09.434Z,98823
2017-12-13T11:29:09.311Z,98818
2017-12-13T11:30:10.498Z,98812
2017-12-13T11:31:10.531Z,98807
2017-12-13T11:32:09.548Z,98814
2017-12-13T11:33:09.600Z,98806
2017-12-13T11:34:10.582Z,98796
2017-12-13T11:35:09.751Z,98798
2017-12-13T11:36:10.695Z,98797
2017-12-13T11:37:09.830Z,98793
2017-12-13T11:38:10.898Z,98783
2017-12-13T11:39:09.923Z,98784
2017-12-13T11:40:10.921Z,98788
2017-12-13T11:41:10.029Z,98776
2017-12-13T11:42:10.663Z,98806
2017-12-13T11:43:10.967Z,98784
2017-12-13T11:44:11.260Z,98764
2017-12-13T11:45:11.202Z,98801
2017-12-13T11:46:10.402Z,98781
2017-12-13T11:47:10.367Z,98777
2017-12-13T11:48:11.457Z,98761
2017-12-13T11:49:10.499Z,98758
2017-12-13T11:50:10.546Z,98755
2017-12-13T11:51:10.396Z,98783
2017-12-13T11:52:10.463Z,98751
2017-12-13T11:53:10.532Z,98750
2017-12-13T11:54:11.643Z,98727
2017-12-13T11:55:11.584Z,98773
2017-12-13T11:56:11.598Z,98737
2017-12-13T11:57:10.702Z,98734
2017-12-13T11:58:10.882Z,98737
2017-12-13T11:59:11.022Z,98741
2017-12-13T12:00:11.067Z,98727
2017-12-13T12:01:12.272Z,98724
2017-12-13T12:02:10.993Z,98724
2017-12-13T12:03:12.117Z,98721
2017-12-13T12:04:11.310Z,98726
2017-12-13T12:05:12.260Z,98722
2017-12-13T12:06:12.381Z,98709
2017-12-13T12:07:11.339Z,98705
2017-12-13T12:08:12.361Z,98706
2017-12-13T12:09:12.168Z,98713
2017-12-13T12:10:11.485Z,98710
2017-12-13T12:11:11.623Z,98703
2017-12-13T12:12:12.740Z,98706
2017-12-13T12:13:12.607Z,98700
2017-12-13T12:14:11.658Z,98689
2017-12-13T12:15:12.756Z,98695
2017-12-13T12:16:12.879Z,98682
2017-12-13T12:17:12.996Z,98689
2017-12-13T12:18:11.964Z,98696
2017-12-13T12:19:12.047Z,98679
2017-12-13T12:20:12.974Z,98685
2017-12-13T12:21:12.927Z,98685
2017-12-13T12:22:12.020Z,98681
2017-12-13T12:23:12.186Z,98678
2017-12-13T12:24:12.286Z,98662
2017-12-13T12:25:14.147Z,98670
2017-12-13T12:26:13.390Z,98666
2017-12-13T12:27:12.441Z,98679
2017-12-13T12:28:13.400Z,98652
2017-12-13T12:29:12.574Z,98672
2017-12-13T12:30:13.636Z,98652
2017-12-13T12:31:12.598Z,98661
2017-12-13T12:32:12.489Z,98662
2017-12-13T12:33:13.589Z,98646
2017-12-13T12:34:12.718Z,98673
2017-12-13T12:35:12.723Z,98637
2017-12-13T12:36:13.817Z,98648
2017-12-13T12:37:13.936Z,98649
2017-12-13T12:38:13.763Z,98644
2017-12-13T12:39:14.679Z,98666
2017-12-13T12:40:13.888Z,98644
2017-12-13T12:41:13.069Z,98630
2017-12-13T12:42:14.020Z,98634
2017-12-13T12:43:13.076Z,98633
2017-12-13T12:44:13.350Z,98631
2017-12-13T12:45:13.557Z,98627
2017-12-13T12:46:13.207Z,98616
2017-12-13T12:47:13.175Z,98617
2017-12-13T12:48:13.238Z,98635
2017-12-13T12:49:13.278Z,98617
2017-12-13T12:50:14.428Z,98609